createdAt,value
2022-08-05T00:00:17.221Z,100.00
2022-08-05T00:02:51.042Z,100.00
2022-08-05T00:06:01.720Z,100.00
2022-08-05T00:08:34.181Z,100.00
2022-08-05T00:11:00.955Z,100.00
2022-08-05T00:13:38.775Z,100.00
2022-08-05T00:16:10.965Z,100.00
2022-08-05T00:18:42.342Z,100.00
2022-08-05T00:21:09.640Z,100.00
2022-08-05T00:23:46.681Z,100.00
2022-08-05T00:26:22.750Z,100.00
2022-08-05T00:28:51.211Z,100.00
2022-08-05T00:31:53.156Z,100.00
2022-08-05T00:34:55.197Z,100.00
2022-08-05T00:37:12.621Z,100.00
2022-08-05T00:39:57.239Z,100.00
2022-08-05T00:42:33.805Z,100.00
2022-08-05T00:45:01.626Z,100.00
2022-08-05T00:47:53.208Z,100.00
2022-08-05T00:50:16.418Z,100.00
2022-08-05T00:52:45.420Z,100.00
2022-08-05T00:55:14.011Z,100.00
2022-08-05T00:57:57.854Z,100.00
2022-08-05T01:00:29.037Z,100.00
2022-08-05T01:02:59.887Z,100.00
2022-08-05T01:05:27.725Z,100.00
2022-08-05T01:08:40.391Z,100.00
2022-08-05T01:10:53.341Z,100.00
2022-08-05T01:13:58.241Z,100.00
2022-08-05T01:16:39.081Z,100.00
2022-08-05T01:19:16.131Z,100.00
2022-08-05T01:22:04.332Z,100.00
2022-08-05T01:24:47.518Z,100.00
2022-08-05T01:27:23.499Z,100.00
2022-08-05T01:29:56.176Z,100.00
2022-08-05T01:32:27.960Z,100.00
2022-08-05T01:34:59.104Z,100.00
2022-08-05T01:37:44.296Z,100.00
2022-08-05T01:40:17.938Z,100.00
2022-08-05T01:42:46.980Z,100.00
2022-08-05T01:45:16.400Z,100.00
2022-08-05T01:47:46.427Z,100.00
2022-08-05T01:50:28.859Z,100.00
2022-08-05T01:53:01.438Z,100.00
2022-08-05T01:55:32.501Z,100.00
2022-08-05T01:58:10.382Z,100.00
2022-08-05T02:00:46.457Z,100.00
2022-08-05T02:03:34.442Z,100.00
2022-08-05T02:06:23.937Z,100.00
2022-08-05T02:08:58.164Z,100.00
2022-08-05T02:11:52.357Z,100.00
2022-08-05T02:14:47.003Z,100.00
2022-08-05T02:18:27.978Z,100.00
2022-08-05T02:20:20.716Z,100.00
2022-08-05T02:23:01.460Z,100.00
2022-08-05T02:25:50.264Z,100.00
2022-08-05T02:28:29.279Z,100.00
2022-08-05T02:31:22.676Z,100.00
2022-08-05T02:33:59.401Z,100.00
2022-08-05T02:36:31.353Z,100.00
2022-08-05T02:39:01.580Z,100.00
2022-08-05T02:41:43.286Z,100.00
2022-08-05T02:44:19.535Z,100.00
2022-08-05T02:46:58.692Z,100.00
2022-08-05T02:49:35.855Z,100.00
2022-08-05T02:52:08.659Z,100.00
2022-08-05T02:54:41.276Z,100.00
2022-08-05T02:58:11.928Z,100.00
2022-08-05T03:00:02.543Z,100.00
2022-08-05T03:02:34.830Z,100.00
2022-08-05T03:05:02.119Z,100.00
2022-08-05T03:07:59.299Z,100.00
2022-08-05T03:10:21.844Z,100.00
2022-08-05T03:15:24.381Z,100.00
2022-08-05T03:17:57.684Z,100.00
2022-08-05T03:20:27.448Z,100.00
2022-08-05T03:22:57.951Z,100.00
2022-08-05T03:25:32.630Z,100.00
2022-08-05T03:28:08.296Z,100.00
2022-08-05T03:30:38.193Z,100.00
2022-08-05T03:33:06.374Z,100.00
2022-08-05T03:35:40.746Z,100.00
2022-08-05T03:38:11.834Z,100.00
2022-08-05T03:40:48.465Z,100.00
2022-08-05T03:44:09.121Z,100.00
2022-08-05T03:46:05.639Z,100.00
2022-08-05T03:48:36.794Z,100.00
2022-08-05T03:52:36.872Z,100.00
2022-08-05T03:55:06.918Z,100.00
2022-08-05T03:57:29.062Z,100.00
2022-08-05T04:00:11.770Z,100.00
2022-08-05T04:02:57.532Z,100.00
2022-08-05T04:05:33.829Z,100.00
2022-08-05T04:08:14.614Z,100.00
2022-08-05T04:10:57.439Z,100.00
2022-08-05T04:13:27.731Z,100.00
2022-08-05T04:16:14.294Z,100.00
2022-08-05T04:18:41.583Z,100.00
2022-08-05T04:21:11.005Z,100.00
2022-08-05T04:24:04.910Z,100.00
2022-08-05T04:26:32.323Z,100.00
2022-08-05T04:29:00.683Z,100.00
2022-08-05T04:31:39.448Z,100.00
2022-08-05T04:34:31.960Z,100.00
2022-08-05T04:36:53.893Z,100.00
2022-08-05T04:39:22.929Z,100.00
2022-08-05T04:41:51.125Z,100.00
2022-08-05T04:44:29.627Z,100.00
2022-08-05T04:46:59.006Z,100.00
2022-08-05T04:49:38.388Z,100.00
2022-08-05T04:52:15.253Z,100.00
2022-08-05T04:54:42.500Z,100.00
2022-08-05T04:57:09.586Z,100.00
2022-08-05T04:59:39.178Z,100.00
2022-08-05T05:02:37.593Z,100.00
2022-08-05T05:05:02.780Z,100.00
2022-08-05T05:07:32.770Z,100.00
2022-08-05T05:10:06.376Z,100.00
2022-08-05T05:12:36.709Z,100.00
2022-08-05T05:15:10.591Z,100.00
2022-08-05T05:17:55.922Z,100.00
2022-08-05T05:20:28.789Z,100.00
2022-08-05T05:23:04.189Z,100.00
2022-08-05T05:25:40.948Z,100.00
2022-08-05T05:28:09.310Z,100.00
2022-08-05T05:30:37.177Z,100.00
2022-08-05T05:33:16.302Z,100.00
2022-08-05T05:35:46.657Z,100.00
2022-08-05T05:38:14.500Z,100.00
2022-08-05T05:40:49.752Z,100.00
2022-08-05T05:43:27.646Z,100.00
2022-08-05T05:46:13.792Z,100.00
2022-08-05T05:48:44.290Z,100.00
2022-08-05T05:51:15.885Z,100.00
2022-08-05T05:53:54.167Z,100.00
2022-08-05T05:56:32.656Z,100.00
2022-08-05T05:59:07.452Z,100.00
2022-08-05T06:01:40.337Z,100.00
2022-08-05T06:04:14.555Z,100.00
2022-08-05T06:06:47.280Z,100.00
2022-08-05T06:09:24.890Z,100.00
2022-08-05T06:12:01.146Z,100.00
2022-08-05T06:14:30.765Z,100.00
2022-08-05T06:16:58.834Z,100.00
2022-08-05T06:19:34.673Z,100.00
2022-08-05T06:22:06.935Z,100.00
2022-08-05T06:24:36.248Z,100.00
2022-08-05T06:27:05.572Z,100.00
2022-08-05T06:30:04.615Z,100.00
2022-08-05T06:32:40.220Z,100.00
2022-08-05T06:35:15.445Z,100.00
2022-08-05T06:37:57.561Z,100.00
2022-08-05T06:40:27.881Z,100.00
2022-08-05T06:43:00.163Z,100.00
2022-08-05T06:46:03.444Z,100.00
2022-08-05T06:48:52.907Z,100.00
2022-08-05T06:51:09.480Z,100.00
2022-08-05T06:53:39.083Z,100.00
2022-08-05T06:56:06.814Z,100.00
2022-08-05T06:58:53.341Z,100.00
2022-08-05T07:01:23.168Z,100.00
2022-08-05T07:03:56.031Z,100.00
2022-08-05T07:06:28.878Z,100.00
2022-08-05T07:08:59.098Z,100.00
2022-08-05T07:11:28.646Z,100.00
2022-08-05T07:14:20.721Z,100.00
2022-08-05T07:17:59.792Z,100.00
2022-08-05T07:22:38.687Z,100.00
2022-08-05T07:25:23.686Z,100.00
2022-08-05T07:28:05.392Z,100.00
2022-08-05T07:30:39.075Z,100.00
2022-08-05T07:33:15.946Z,100.00
2022-08-05T07:36:02.709Z,100.00
2022-08-05T07:38:35.662Z,100.00
2022-08-05T07:42:07.698Z,100.00
2022-08-05T07:44:04.337Z,100.00
2022-08-05T07:46:33.783Z,100.00
2022-08-05T07:49:06.341Z,100.00
2022-08-05T07:51:48.546Z,100.00
2022-08-05T07:54:33.615Z,100.00
2022-08-05T07:57:16.854Z,100.00
2022-08-05T07:59:53.885Z,100.00
2022-08-05T08:02:31.293Z,100.00
2022-08-05T08:05:16.598Z,94.74
2022-08-05T08:07:59.006Z,98.70
2022-08-05T08:10:26.846Z,90.19
2022-08-05T08:12:53.895Z,91.00
2022-08-05T08:16:33.797Z,93.51
2022-08-05T08:18:13.966Z,92.03
2022-08-05T08:20:59.872Z,91.56
2022-08-05T08:24:04.003Z,91.45
2022-08-05T08:26:15.081Z,83.58
2022-08-05T08:28:55.206Z,87.93
2022-08-05T08:31:27.038Z,88.68
2022-08-05T08:33:56.695Z,93.23
2022-08-05T08:36:38.733Z,86.23
2022-08-05T08:39:15.725Z,79.65
2022-08-05T08:41:52.512Z,80.72
2022-08-05T08:45:23.885Z,86.05
2022-08-05T08:48:06.111Z,82.54
2022-08-05T08:50:31.930Z,75.90
2022-08-05T08:53:11.933Z,79.82
2022-08-05T08:56:04.312Z,83.61
2022-08-05T08:58:37.508Z,88.02
2022-08-05T09:01:16.355Z,91.26
2022-08-05T09:03:54.440Z,87.97
2022-08-05T09:06:29.306Z,70.89
2022-08-05T09:09:01.469Z,70.76
2022-08-05T09:11:51.071Z,67.18
2022-08-05T09:14:58.978Z,70.94
2022-08-05T09:17:08.215Z,70.56
2022-08-05T09:20:01.434Z,69.55
2022-08-05T09:22:31.538Z,72.95
2022-08-05T09:25:13.876Z,74.28
2022-08-05T09:28:04.345Z,58.15
2022-08-05T09:30:35.680Z,47.70
2022-08-05T09:33:06.450Z,53.02
2022-08-05T09:35:37.949Z,52.68
2022-08-05T09:38:16.987Z,49.11
2022-08-05T09:40:52.221Z,48.99
2022-08-05T09:43:41.453Z,51.88
2022-08-05T09:46:30.721Z,53.43
2022-08-05T09:49:08.301Z,52.23
2022-08-05T09:51:49.977Z,49.62
2022-08-05T09:54:29.636Z,50.63
2022-08-05T09:57:01.603Z,50.58
2022-08-05T09:59:35.137Z,50.89
2022-08-05T10:02:04.608Z,51.80
2022-08-05T10:04:38.594Z,51.02
2022-08-05T10:07:19.848Z,51.75
2022-08-05T10:10:14.093Z,55.00
2022-08-05T10:12:49.351Z,54.83
2022-08-05T10:15:38.947Z,52.52
2022-08-05T10:18:16.874Z,53.33
2022-08-05T10:20:52.983Z,51.72
2022-08-05T10:23:55.246Z,52.76
2022-08-05T10:26:13.863Z,52.33
2022-08-05T10:28:46.367Z,49.86
2022-08-05T10:32:47.845Z,50.44
2022-08-05T10:34:07.183Z,44.70
2022-08-05T10:36:40.891Z,44.78
2022-08-05T10:39:24.413Z,42.71
2022-08-05T10:42:11.372Z,41.50
2022-08-05T10:44:43.195Z,40.58
2022-08-05T10:47:26.830Z,41.00
2022-08-05T10:50:28.075Z,38.70
2022-08-05T10:53:00.987Z,38.76
2022-08-05T10:55:32.918Z,39.82
2022-08-05T10:58:18.111Z,40.19
2022-08-05T11:00:48.005Z,39.95
2022-08-05T11:03:23.424Z,39.89
2022-08-05T11:06:05.923Z,40.99
2022-08-05T11:08:37.268Z,40.83
2022-08-05T11:11:44.426Z,41.94
2022-08-05T11:17:59.385Z,43.35
2022-08-05T11:20:41.446Z,43.40
2022-08-05T11:23:33.588Z,43.55
2022-08-05T11:26:28.905Z,43.53
2022-08-05T11:29:11.979Z,43.06
2022-08-05T11:31:58.329Z,44.37
2022-08-05T11:34:39.383Z,44.98
2022-08-05T11:38:26.147Z,44.22
2022-08-05T11:39:55.459Z,45.49
2022-08-05T11:42:28.445Z,45.25
2022-08-05T11:45:14.434Z,45.01
2022-08-05T11:47:54.852Z,46.09
2022-08-05T11:50:25.208Z,46.79
2022-08-05T11:53:09.816Z,47.45
2022-08-05T11:55:37.194Z,49.63
2022-08-05T11:58:11.307Z,51.29
2022-08-05T12:00:41.252Z,52.50
2022-08-05T12:03:28.480Z,52.26
2022-08-05T12:06:10.027Z,53.27
2022-08-05T12:08:59.733Z,52.77
2022-08-05T12:11:40.446Z,53.10
2022-08-05T12:14:10.275Z,52.10
2022-08-05T12:16:45.151Z,51.40
2022-08-05T12:20:25.443Z,47.94
2022-08-05T12:22:01.777Z,42.92
2022-08-05T12:24:30.138Z,44.75
2022-08-05T12:26:57.894Z,48.91
2022-08-05T12:29:27.753Z,51.30
2022-08-05T12:31:58.194Z,53.44
2022-08-05T12:34:36.910Z,55.29
2022-08-05T12:37:21.476Z,57.43
2022-08-05T12:39:53.799Z,59.00
2022-08-05T12:42:26.888Z,61.24
2022-08-05T12:45:02.433Z,62.08
2022-08-05T12:47:31.068Z,59.14
2022-08-05T12:50:04.561Z,60.84
2022-08-05T12:52:39.663Z,59.66
2022-08-05T12:55:26.966Z,56.86
2022-08-05T12:58:49.409Z,57.86
2022-08-05T13:02:01.797Z,62.03
2022-08-05T13:03:42.013Z,65.59
2022-08-05T13:06:19.755Z,67.75
2022-08-05T13:08:50.884Z,67.97
2022-08-05T13:12:02.957Z,66.23
2022-08-05T13:14:20.303Z,70.56
2022-08-05T13:16:58.986Z,69.88
2022-08-05T13:19:40.435Z,64.15
2022-08-05T13:22:29.317Z,60.52
2022-08-05T13:25:00.848Z,56.92
2022-08-05T13:27:39.244Z,57.14
2022-08-05T13:30:36.045Z,55.55
2022-08-05T13:32:57.360Z,54.78
2022-08-05T13:35:43.008Z,50.78
2022-08-05T13:38:28.148Z,49.12
2022-08-05T13:41:01.814Z,46.61
2022-08-05T13:43:45.618Z,47.36
2022-08-05T13:46:30.656Z,51.01
2022-08-05T13:49:10.477Z,50.08
2022-08-05T13:51:46.503Z,47.70
2022-08-05T13:54:16.297Z,48.75
2022-08-05T13:56:51.560Z,50.56
2022-08-05T13:59:24.894Z,49.42
2022-08-05T14:02:00.297Z,48.48
2022-08-05T14:04:49.422Z,48.85
2022-08-05T14:07:56.393Z,50.99
2022-08-05T14:10:12.825Z,49.53
2022-08-05T14:12:42.670Z,47.35
2022-08-05T14:16:08.431Z,46.42
2022-08-05T14:17:59.849Z,46.04
2022-08-05T14:20:29.901Z,45.36
2022-08-05T14:22:59.895Z,45.87
2022-08-05T14:25:28.565Z,43.52
2022-08-05T14:27:58.430Z,42.41
2022-08-05T14:30:29.958Z,41.95
2022-08-05T14:32:57.537Z,41.50
2022-08-05T14:35:36.942Z,43.76
2022-08-05T14:38:32.169Z,44.53
2022-08-05T14:41:07.441Z,44.63
2022-08-05T14:44:01.881Z,47.38
2022-08-05T14:46:28.753Z,47.81
2022-08-05T14:49:03.452Z,49.16
2022-08-05T14:51:38.893Z,48.95
2022-08-05T14:54:27.771Z,48.39
2022-08-05T14:56:58.753Z,49.99
2022-08-05T14:59:29.518Z,52.10
2022-08-05T15:02:24.358Z,50.72
2022-08-05T15:04:54.379Z,51.47
2022-08-05T15:08:11.503Z,49.83
2022-08-05T15:10:14.766Z,50.49
2022-08-05T15:13:00.195Z,51.46
2022-08-05T15:15:55.484Z,51.64
2022-08-05T15:18:15.366Z,50.32
2022-08-05T15:20:44.563Z,53.68
2022-08-05T15:23:13.460Z,56.63
2022-08-05T15:25:52.619Z,58.14
2022-08-05T15:28:27.401Z,58.42
2022-08-05T15:30:57.603Z,59.36
2022-08-05T15:33:56.442Z,58.13
2022-08-05T15:36:17.737Z,57.99
2022-08-05T15:40:41.048Z,58.09
2022-08-05T15:41:58.421Z,58.47
2022-08-05T15:44:32.342Z,59.62
2022-08-05T15:47:01.511Z,59.13
2022-08-05T15:49:53.644Z,61.46
2022-08-05T15:52:16.781Z,60.92
2022-08-05T15:54:57.413Z,59.58
2022-08-05T15:57:24.926Z,58.72
2022-08-05T15:59:57.892Z,56.75
2022-08-05T16:02:29.084Z,57.89
2022-08-05T16:04:57.279Z,55.45
2022-08-05T16:07:24.665Z,53.43
2022-08-05T16:09:57.958Z,55.08
2022-08-05T16:12:26.042Z,55.89
2022-08-05T16:14:53.351Z,55.94
2022-08-05T16:17:20.488Z,53.76
2022-08-05T16:20:04.525Z,52.71
2022-08-05T16:22:37.730Z,54.26
2022-08-05T16:25:09.688Z,54.00
2022-08-05T16:28:01.085Z,53.36
2022-08-05T16:30:28.747Z,51.27
2022-08-05T16:32:57.902Z,50.70
2022-08-05T16:35:32.500Z,50.46
2022-08-05T16:38:16.316Z,52.25
2022-08-05T16:40:55.145Z,53.86
2022-08-05T16:43:24.726Z,54.14
2022-08-05T16:46:07.828Z,53.86
2022-08-05T16:48:40.371Z,51.47
2022-08-05T16:51:09.998Z,50.56
2022-08-05T16:54:05.124Z,48.67
2022-08-05T16:56:30.464Z,47.47
2022-08-05T16:58:58.485Z,46.91
2022-08-05T17:01:27.348Z,45.76
2022-08-05T17:04:15.058Z,45.61
2022-08-05T17:06:42.279Z,45.40
2022-08-05T17:09:09.495Z,46.22
2022-08-05T17:11:46.050Z,46.20
2022-08-05T17:14:34.338Z,46.09
2022-08-05T17:17:05.756Z,48.06
2022-08-05T17:19:33.079Z,49.27
2022-08-05T17:22:02.235Z,49.78
2022-08-05T17:24:38.785Z,52.12
2022-08-05T17:27:09.510Z,55.54
2022-08-05T17:29:40.984Z,56.55
2022-08-05T17:32:11.687Z,59.17
2022-08-05T17:34:44.128Z,60.47
2022-08-05T17:37:36.026Z,63.36
2022-08-05T17:40:00.184Z,64.74
2022-08-05T17:42:32.041Z,61.92
2022-08-05T17:45:18.198Z,61.00
2022-08-05T17:47:53.417Z,59.42
2022-08-05T17:50:28.545Z,58.72
2022-08-05T17:53:02.607Z,59.48
2022-08-05T17:55:34.559Z,59.67
2022-08-05T17:58:12.506Z,60.68
2022-08-05T18:00:45.042Z,61.10
2022-08-05T18:03:39.344Z,61.94
2022-08-05T18:06:12.774Z,64.89
2022-08-05T18:08:52.165Z,65.05
2022-08-05T18:11:24.313Z,68.31
2022-08-05T18:14:03.253Z,70.39
2022-08-05T18:16:51.570Z,69.29
2022-08-05T18:19:23.076Z,68.85
2022-08-05T18:22:09.823Z,71.48
2022-08-05T18:24:39.523Z,71.76
2022-08-05T18:27:12.845Z,73.14
2022-08-05T18:29:53.613Z,71.73
2022-08-05T18:32:27.989Z,71.97
2022-08-05T18:34:57.360Z,70.53
2022-08-05T18:37:34.547Z,73.57
2022-08-05T18:40:33.668Z,76.43
2022-08-05T18:42:59.683Z,77.81
2022-08-05T18:45:41.247Z,78.35
2022-08-05T18:48:11.328Z,80.47
2022-08-05T18:51:01.884Z,80.27
2022-08-05T18:53:45.876Z,79.97
2022-08-05T18:56:17.667Z,79.21
2022-08-05T18:58:50.826Z,80.36
2022-08-05T19:01:20.674Z,81.29
2022-08-05T19:04:00.611Z,82.87
2022-08-05T19:06:37.363Z,83.17
2022-08-05T19:09:11.957Z,84.16
2022-08-05T19:11:59.941Z,84.67
2022-08-05T19:14:37.693Z,87.81
2022-08-05T19:17:20.888Z,90.67
2022-08-05T19:19:49.192Z,93.22
2022-08-05T19:22:19.223Z,95.52
2022-08-05T19:25:00.449Z,96.73
2022-08-05T19:27:30.388Z,97.96
2022-08-05T19:29:58.321Z,99.30
2022-08-05T19:32:26.503Z,100.00
2022-08-05T19:34:59.498Z,100.00
2022-08-05T19:38:04.175Z,100.00
2022-08-05T19:40:28.131Z,100.00
2022-08-05T19:43:04.707Z,100.00
2022-08-05T19:45:33.301Z,100.00
2022-08-05T19:48:06.416Z,100.00
2022-08-05T19:50:36.401Z,100.00
2022-08-05T19:53:09.391Z,100.00
2022-08-05T19:56:14.765Z,100.00
2022-08-05T19:58:29.766Z,100.00
2022-08-05T20:01:00.936Z,100.00
2022-08-05T20:03:40.823Z,100.00
2022-08-05T20:06:11.748Z,100.00
2022-08-05T20:08:47.574Z,100.00
2022-08-05T20:11:18.137Z,100.00
2022-08-05T20:13:59.020Z,100.00
2022-08-05T20:16:34.532Z,100.00
2022-08-05T20:19:06.447Z,100.00
2022-08-05T20:21:38.361Z,100.00
2022-08-05T20:24:06.375Z,100.00
2022-08-05T20:26:34.770Z,100.00
2022-08-05T20:29:01.908Z,100.00
2022-08-05T20:31:42.153Z,100.00
2022-08-05T20:34:17.095Z,100.00
2022-08-05T20:36:44.483Z,100.00
2022-08-05T20:39:16.129Z,100.00
2022-08-05T20:41:45.452Z,100.00
2022-08-05T20:44:18.863Z,100.00
2022-08-05T20:47:01.675Z,100.00
2022-08-05T20:49:38.127Z,100.00
2022-08-05T20:52:12.600Z,100.00
2022-08-05T20:54:59.028Z,100.00
2022-08-05T20:57:43.832Z,100.00
2022-08-05T21:00:40.726Z,100.00
2022-08-05T21:03:07.385Z,100.00
2022-08-05T21:05:47.901Z,100.00
2022-08-05T21:08:26.529Z,100.00
2022-08-05T21:11:00.519Z,100.00
2022-08-05T21:13:56.103Z,100.00
2022-08-05T21:16:19.371Z,100.00
2022-08-05T21:18:46.501Z,100.00
2022-08-05T21:21:16.062Z,100.00
2022-08-05T21:23:43.553Z,100.00
2022-08-05T21:26:14.276Z,100.00
2022-08-05T21:28:47.614Z,100.00
2022-08-05T21:31:18.510Z,100.00
2022-08-05T21:33:47.581Z,100.00
2022-08-05T21:36:19.086Z,100.00
2022-08-05T21:38:57.283Z,100.00
2022-08-05T21:41:33.680Z,100.00
2022-08-05T21:44:04.344Z,100.00
2022-08-05T21:46:37.431Z,100.00
2022-08-05T21:49:10.028Z,100.00
2022-08-05T21:52:22.459Z,100.00
2022-08-05T21:54:44.447Z,100.00
2022-08-05T21:57:34.801Z,100.00
2022-08-05T22:00:11.340Z,100.00
2022-08-05T22:02:38.938Z,100.00
2022-08-05T22:05:09.033Z,100.00
2022-08-05T22:07:54.265Z,100.00
2022-08-05T22:10:26.550Z,100.00
2022-08-05T22:14:05.298Z,100.00
2022-08-05T22:16:01.425Z,100.00
2022-08-05T22:18:39.058Z,100.00
2022-08-05T22:21:16.581Z,100.00
2022-08-05T22:24:09.023Z,100.00
2022-08-05T22:26:59.312Z,100.00
2022-08-05T22:29:30.712Z,100.00
2022-08-05T22:32:02.926Z,100.00
2022-08-05T22:34:31.734Z,100.00
2022-08-05T22:36:59.447Z,100.00
2022-08-05T22:39:33.081Z,100.00
2022-08-05T22:42:09.810Z,100.00
2022-08-05T22:44:48.207Z,100.00
2022-08-05T22:47:29.423Z,100.00
2022-08-05T22:50:19.446Z,100.00
2022-08-05T22:52:49.788Z,100.00
2022-08-05T22:55:21.287Z,100.00
2022-08-05T22:57:53.795Z,100.00
2022-08-05T23:00:23.694Z,100.00
2022-08-05T23:02:53.570Z,100.00
2022-08-05T23:05:22.603Z,100.00
2022-08-05T23:07:50.836Z,100.00
2022-08-05T23:10:20.855Z,100.00
2022-08-05T23:12:54.744Z,100.00
2022-08-05T23:15:35.353Z,100.00
2022-08-05T23:18:06.045Z,100.00
2022-08-05T23:20:39.962Z,100.00
2022-08-05T23:23:10.253Z,100.00
2022-08-05T23:25:52.568Z,100.00
2022-08-05T23:28:30.962Z,100.00
2022-08-05T23:31:07.042Z,100.00
2022-08-05T23:34:04.982Z,100.00
2022-08-05T23:36:38.608Z,100.00
2022-08-05T23:39:07.804Z,100.00
2022-08-05T23:41:41.054Z,100.00
2022-08-05T23:44:16.715Z,100.00
2022-08-05T23:46:44.099Z,100.00
2022-08-05T23:49:17.033Z,100.00
2022-08-05T23:52:08.280Z,100.00
2022-08-05T23:54:38.585Z,100.00
2022-08-05T23:57:09.007Z,100.00
